Time;durP1;ratioP1;P1;durP2;ratioP2;P2;SDS_P1;SDS_P2;PMS_P1;PMS_P2;Temp;Humidity;BMP_temperature;BMP_pressure;BME280_temperature;BME280_humidity;BME280_pressure;Samples;Min_cycle;Max_cycle;Signal;HPM_P1;HPM_P2
2021/05/12 00:02:16;;;;;;;1.90;1.60;;;;;;;12.23;73.36;98455.19;3579477;40;20041;-67
2021/05/12 00:04:43;;;;;;;1.98;1.58;;;;;;;12.22;73.55;98456.22;3580695;40;20032;-67
2021/05/12 00:07:11;;;;;;;3.40;1.88;;;;;;;12.16;73.00;98465.81;3579663;40;20057;-67
2021/05/12 00:09:38;;;;;;;3.47;1.75;;;;;;;12.09;73.06;98460.56;3580467;40;20057;-67
2021/05/12 00:12:07;;;;;;;3.03;1.90;;;;;;;12.04;73.04;98467.50;3579933;40;20048;-67
2021/05/12 00:14:36;;;;;;;4.68;1.90;;;;;;;12.04;73.45;98449.78;3580439;40;20056;-66
2021/05/12 00:17:04;;;;;;;3.20;1.90;;;;;;;11.97;73.03;98466.72;3588150;40;20037;-67
2021/05/12 00:19:34;;;;;;;4.80;2.40;;;;;;;11.91;73.34;98463.06;3579538;40;20045;-67
2021/05/12 00:22:13;;;;;;;2.72;2.10;;;;;;;11.93;72.98;98462.88;3580717;40;20048;-65
2021/05/12 00:24:41;;;;;;;3.55;2.17;;;;;;;11.93;73.41;98463.69;3580514;40;20056;-67
2021/05/12 00:27:08;;;;;;;2.38;1.90;;;;;;;11.93;73.25;98468.16;3580589;40;20349;-67
2021/05/12 00:29:35;;;;;;;3.80;3.00;;;;;;;11.87;73.09;98470.59;3578808;40;20048;-68
2021/05/12 00:32:04;;;;;;;5.40;3.08;;;;;;;11.89;73.25;98476.53;3579468;40;20056;-67
2021/05/12 00:34:32;;;;;;;9.25;3.15;;;;;;;11.83;73.39;98473.88;3579419;40;20333;-68
2021/05/12 00:36:59;;;;;;;5.80;3.47;;;;;;;11.82;73.60;98474.88;3579528;40;20369;-67
2021/05/12 00:39:26;;;;;;;4.68;3.97;;;;;;;11.82;73.67;98470.38;3578379;40;20092;-67
2021/05/12 00:41:54;;;;;;;5.28;4.65;;;;;;;11.72;73.56;98464.72;3579548;40;20051;-67
2021/05/12 00:44:22;;;;;;;5.55;4.95;;;;;;;11.71;74.00;98472.88;3579301;40;20045;-67
2021/05/12 00:46:51;;;;;;;7.55;4.50;;;;;;;11.71;74.05;98473.69;3578900;40;20060;-67
2021/05/12 00:49:22;;;;;;;9.55;4.82;;;;;;;11.71;73.98;98473.69;3579139;40;20053;-68
2021/05/12 00:51:50;;;;;;;8.02;4.60;;;;;;;11.78;74.15;98473.66;3579041;40;20047;-67
2021/05/12 00:54:17;;;;;;;6.50;4.47;;;;;;;11.85;74.07;98474.50;3579143;40;20049;-68
2021/05/12 00:56:44;;;;;;;7.75;5.55;;;;;;;11.83;73.98;98480.00;3577999;40;20036;-67
2021/05/12 00:59:12;;;;;;;5.85;4.60;;;;;;;11.80;73.71;98483.03;3579108;40;20089;-67
2021/05/12 01:01:39;;;;;;;7.63;4.32;;;;;;;11.76;73.99;98486.31;3578484;40;20056;-68
2021/05/12 01:04:07;;;;;;;12.55;4.72;;;;;;;11.80;74.02;98482.22;3579968;40;20075;-66
2021/05/12 01:06:37;;;;;;;6.15;4.47;;;;;;;11.81;74.07;98470.63;3579789;40;20041;-67
2021/05/12 01:09:05;;;;;;;6.82;5.00;;;;;;;11.84;73.80;98481.63;3580452;40;20048;-67
2021/05/12 01:11:33;;;;;;;6.93;5.25;;;;;;;11.81;74.12;98476.72;3579831;40;20146;-66
2021/05/12 01:14:01;;;;;;;5.03;4.40;;;;;;;11.68;74.28;98481.25;3580862;40;20037;-67
2021/05/12 01:16:28;;;;;;;4.70;4.00;;;;;;;11.69;74.34;98488.16;3581111;40;20049;-65
2021/05/12 01:18:56;;;;;;;5.63;4.72;;;;;;;11.73;74.71;98487.53;3580191;40;20134;-66
2021/05/12 01:21:24;;;;;;;6.78;4.45;;;;;;;11.71;74.81;98484.25;3580840;40;20040;-67
2021/05/12 01:23:51;;;;;;;7.05;5.20;;;;;;;11.73;74.26;98490.19;3580065;40;20052;-66
2021/05/12 01:26:21;;;;;;;7.40;4.70;;;;;;;11.64;74.92;98486.13;3580851;40;20033;-67
2021/05/12 01:28:50;;;;;;;7.13;5.18;;;;;;;11.60;74.89;98483.09;3581641;40;20065;-66
2021/05/12 01:31:20;;;;;;;5.82;4.68;;;;;;;11.65;74.84;98485.91;3581999;40;20127;-66
2021/05/12 01:33:49;;;;;;;7.13;5.45;;;;;;;11.65;74.80;98485.91;3582272;40;20056;-67
2021/05/12 01:36:17;;;;;;;8.45;5.50;;;;;;;11.65;74.79;98487.75;3583180;40;20040;-67
2021/05/12 01:38:46;;;;;;;12.02;5.43;;;;;;;11.62;74.95;98496.09;3582817;40;20055;-67
2021/05/12 01:41:15;;;;;;;8.20;5.38;;;;;;;11.69;74.71;98498.75;3583321;40;20049;-66
2021/05/12 01:43:42;;;;;;;7.95;4.78;;;;;;;11.74;74.40;98498.94;3583422;40;20060;-67
2021/05/12 01:46:11;;;;;;;6.38;5.45;;;;;;;11.75;74.44;98496.06;3583266;40;20045;-68
2021/05/12 01:48:39;;;;;;;6.63;5.10;;;;;;;11.71;74.44;98496.69;3583070;40;20056;-67
2021/05/12 01:51:07;;;;;;;6.55;5.18;;;;;;;11.66;74.28;98492.03;3583452;40;20053;-67
2021/05/12 01:53:34;;;;;;;6.80;5.75;;;;;;;11.62;74.52;98488.97;3583220;40;20055;-67
2021/05/12 01:56:03;;;;;;;6.50;5.85;;;;;;;11.65;74.62;98493.88;3582119;40;20045;-66
2021/05/12 01:58:30;;;;;;;6.55;5.28;;;;;;;11.70;74.65;98489.78;3583331;40;20044;-67
2021/05/12 02:00:58;;;;;;;9.30;5.85;;;;;;;11.73;74.19;98490.19;3583226;40;20044;-67
2021/05/12 02:03:26;;;;;;;7.13;5.78;;;;;;;11.71;74.22;98491.41;3580965;40;20515;-66
2021/05/12 02:05:54;;;;;;;8.63;6.20;;;;;;;11.69;74.22;98490.81;3580150;40;20084;-67
2021/05/12 02:08:23;;;;;;;8.23;5.88;;;;;;;11.71;74.55;98499.34;3578660;40;20049;-66
2021/05/12 02:10:54;;;;;;;9.40;5.60;;;;;;;11.75;74.02;98489.97;3578284;40;20049;-66
2021/05/12 02:13:23;;;;;;;11.45;5.95;;;;;;;11.76;74.15;98491.63;3577749;40;20450;-67
2021/05/12 02:15:52;;;;;;;7.65;5.85;;;;;;;11.74;74.13;98493.63;3578089;40;20044;-67
2021/05/12 02:18:20;;;;;;;7.63;6.10;;;;;;;11.73;73.98;98486.72;3579248;40;20523;-67
2021/05/12 02:20:47;;;;;;;8.10;5.90;;;;;;;11.71;74.23;98492.22;3579452;40;20052;-67
2021/05/12 02:23:16;;;;;;;10.50;5.97;;;;;;;11.71;74.46;98488.75;3579792;40;20056;-67
2021/05/12 02:25:44;;;;;;;9.05;6.68;;;;;;;11.72;74.23;98487.75;3635542;23;20032;-63
2021/05/12 02:28:12;;;;;;;12.27;6.22;;;;;;;11.74;74.42;98486.50;3589523;40;20048;-62
2021/05/12 02:30:41;;;;;;;9.48;5.70;;;;;;;11.79;74.13;98488.53;3598875;40;20048;-62
2021/05/12 02:33:09;;;;;;;7.90;6.53;;;;;;;11.79;73.81;98489.34;3599502;40;20068;-63
2021/05/12 02:35:37;;;;;;;9.07;6.15;;;;;;;11.79;74.21;98481.41;3600481;39;20028;-63
2021/05/12 02:38:06;;;;;;;7.80;6.10;;;;;;;11.74;73.76;98483.84;3592820;40;20051;-62
2021/05/12 02:40:33;;;;;;;7.22;6.53;;;;;;;11.73;74.07;98481.44;3602618;39;20104;-63
2021/05/12 02:43:04;;;;;;;8.43;6.53;;;;;;;11.72;74.13;98485.91;3603608;40;20052;-62
2021/05/12 02:45:32;;;;;;;10.20;6.85;;;;;;;11.68;73.92;98479.41;3602985;40;20048;-62
2021/05/12 02:48:01;;;;;;;9.10;6.15;;;;;;;11.68;73.99;98482.06;3591188;40;20056;-61
2021/05/12 02:50:31;;;;;;;9.77;6.88;;;;;;;11.63;74.21;98484.50;3599878;40;20044;-62
2021/05/12 02:53:00;;;;;;;11.02;6.57;;;;;;;11.57;74.07;98477.38;3590200;40;20040;-62
2021/05/12 02:55:28;;;;;;;9.02;6.78;;;;;;;11.55;74.51;98479.41;3598948;40;20055;-62
2021/05/12 02:57:57;;;;;;;9.50;7.45;;;;;;;11.55;74.58;98482.91;3598770;40;20047;-63
2021/05/12 03:00:28;;;;;;;11.20;7.70;;;;;;;11.53;74.50;98492.06;3589388;40;20389;-62
2021/05/12 03:02:56;;;;;;;14.23;7.88;;;;;;;11.52;74.37;98483.31;3589322;40;20110;-61
2021/05/12 03:05:25;;;;;;;10.20;7.57;;;;;;;11.53;74.19;98489.41;3598528;40;20043;-62
2021/05/12 03:07:53;;;;;;;11.48;7.22;;;;;;;11.50;74.32;98490.63;3598267;40;20074;-62
2021/05/12 03:10:22;;;;;;;11.60;7.65;;;;;;;11.52;74.05;98498.38;3598641;39;20393;-62
2021/05/12 03:12:50;;;;;;;9.40;7.60;;;;;;;11.50;74.58;98487.97;3598751;40;20036;-62
2021/05/12 03:15:22;;;;;;;14.25;8.60;;;;;;;11.50;74.06;98495.09;3589023;40;20048;-61
2021/05/12 03:17:52;;;;;;;12.63;8.10;;;;;;;11.41;74.44;98491.88;3588789;40;20344;-62
2021/05/12 03:20:20;;;;;;;10.85;7.65;;;;;;;11.37;74.44;98496.75;3588895;39;20071;-61
2021/05/12 03:22:49;;;;;;;11.48;8.00;;;;;;;11.39;74.36;98491.28;3600209;40;20389;-62
2021/05/12 03:25:17;;;;;;;10.10;7.90;;;;;;;11.47;74.55;98495.50;3600066;40;20048;-61
2021/05/12 03:27:45;;;;;;;10.93;8.35;;;;;;;11.52;74.19;98496.53;3599828;40;20035;-61
2021/05/12 03:30:16;;;;;;;10.57;9.27;;;;;;;11.51;74.05;98504.66;3600059;40;20051;-61
2021/05/12 03:32:43;;;;;;;10.63;9.10;;;;;;;11.52;73.67;98493.91;3600052;40;20137;-62
2021/05/12 03:35:11;;;;;;;11.48;9.57;;;;;;;11.45;73.98;98494.91;3599901;40;20044;-61
2021/05/12 03:37:39;;;;;;;10.25;9.15;;;;;;;11.44;73.68;98499.41;3590264;40;20028;-63
2021/05/12 03:40:09;;;;;;;10.48;9.48;;;;;;;11.47;74.01;98496.34;3599816;40;20047;-63
2021/05/12 03:42:36;;;;;;;10.88;9.20;;;;;;;11.50;73.50;98487.16;3599822;40;20028;-62
2021/05/12 03:45:06;;;;;;;12.60;9.82;;;;;;;11.46;73.46;98492.06;3590650;40;20080;-62
2021/05/12 03:47:33;;;;;;;14.70;11.20;;;;;;;11.50;73.46;98495.09;3599711;39;20125;-63
2021/05/12 03:50:01;;;;;;;12.30;10.25;;;;;;;11.51;73.56;98497.56;3599915;40;20028;-63
2021/05/12 03:52:28;;;;;;;15.32;9.07;;;;;;;11.52;73.19;98490.44;3600035;40;20052;-63
2021/05/12 03:54:56;;;;;;;12.15;9.70;;;;;;;11.53;73.26;98486.75;3599949;40;20408;-63
2021/05/12 03:57:24;;;;;;;14.18;10.68;;;;;;;11.45;73.08;98495.72;3599490;40;20045;-63
2021/05/12 03:59:51;;;;;;;11.45;10.35;;;;;;;11.52;73.23;98498.38;3599659;40;20063;-63
2021/05/12 04:02:19;;;;;;;13.25;10.50;;;;;;;11.52;73.02;98495.72;3599868;40;20055;-64
2021/05/12 04:04:46;;;;;;;13.35;11.25;;;;;;;11.50;72.95;98497.75;3599975;40;20051;-62
2021/05/12 04:07:13;;;;;;;15.02;11.80;;;;;;;11.51;73.33;98500.22;3590140;40;20060;-62
2021/05/12 04:09:40;;;;;;;15.82;11.50;;;;;;;11.47;73.22;98487.56;3599750;40;20052;-62
2021/05/12 04:12:08;;;;;;;19.58;11.20;;;;;;;11.48;73.40;98491.88;3600201;40;20109;-62
2021/05/12 04:14:36;;;;;;;13.63;11.45;;;;;;;11.50;72.94;98490.63;3599784;40;20298;-62
2021/05/12 04:17:04;;;;;;;14.30;12.52;;;;;;;11.55;73.37;98497.94;3590298;40;20040;-63
2021/05/12 04:19:31;;;;;;;16.20;12.60;;;;;;;11.57;73.18;98487.97;3601543;40;20136;-63
2021/05/12 04:21:59;;;;;;;12.35;10.90;;;;;;;11.59;72.76;98496.50;3602201;40;20059;-62
2021/05/12 04:24:26;;;;;;;13.57;10.95;;;;;;;11.61;72.85;98492.66;3600741;40;20044;-63
2021/05/12 04:26:53;;;;;;;16.40;11.95;;;;;;;11.60;72.90;98500.81;3590824;40;20052;-62
2021/05/12 04:29:22;;;;;;;15.00;10.82;;;;;;;11.68;72.96;98495.28;3601903;40;20048;-64
2021/05/12 04:31:50;;;;;;;11.57;10.00;;;;;;;11.65;72.74;98498.34;3604321;39;20044;-62
2021/05/12 04:34:18;;;;;;;13.40;10.85;;;;;;;11.68;72.96;98505.06;3604520;39;20073;-62
2021/05/12 04:36:45;;;;;;;14.98;10.93;;;;;;;11.64;72.51;98505.47;3593070;40;20035;-63
2021/05/12 04:39:13;;;;;;;14.90;11.43;;;;;;;11.70;72.44;98516.25;3603197;40;20102;-63
2021/05/12 04:41:40;;;;;;;16.00;11.60;;;;;;;11.70;72.28;98513.63;3606354;39;20080;-63
2021/05/12 04:44:11;;;;;;;12.10;10.85;;;;;;;11.69;72.44;98512.81;3608397;40;20059;-64
2021/05/12 04:46:40;;;;;;;15.48;11.07;;;;;;;11.72;72.45;98516.88;3604082;40;20040;-64
2021/05/12 04:49:08;;;;;;;11.68;10.48;;;;;;;11.71;72.25;98508.09;3603749;40;20043;-63
2021/05/12 04:51:36;;;;;;;11.27;9.88;;;;;;;11.73;72.40;98513.22;3605403;40;20321;-63
2021/05/12 04:54:04;;;;;;;12.88;10.00;;;;;;;11.79;72.20;98526.41;3604534;40;20043;-63
2021/05/12 04:56:31;;;;;;;12.00;10.18;;;;;;;11.64;72.11;98529.31;3605122;40;20028;-62
2021/05/12 04:58:59;;;;;;;17.98;11.27;;;;;;;11.66;72.18;98531.75;3596263;40;20040;-62
2021/05/12 05:01:26;;;;;;;13.32;10.45;;;;;;;11.63;72.42;98529.50;3602879;40;20024;-62
2021/05/12 05:03:54;;;;;;;11.95;9.95;;;;;;;11.70;72.32;98530.31;3604696;40;20021;-62
2021/05/12 05:06:22;;;;;;;12.75;11.05;;;;;;;11.74;72.16;98539.47;3604135;40;20048;-63
2021/05/12 05:08:49;;;;;;;13.77;9.80;;;;;;;11.76;72.13;98532.16;3592269;40;20332;-64
2021/05/12 05:11:17;;;;;;;11.52;10.32;;;;;;;11.72;72.12;98538.06;3599468;40;20128;-63
2021/05/12 05:13:44;;;;;;;13.35;10.23;;;;;;;11.72;71.72;98544.16;3599496;40;20028;-63
2021/05/12 05:16:12;;;;;;;10.73;9.48;;;;;;;11.74;72.20;98543.97;3599531;39;20036;-63
2021/05/12 05:18:39;;;;;;;12.70;9.38;;;;;;;11.80;72.05;98543.16;3599321;40;20035;-63
2021/05/12 05:21:07;;;;;;;12.07;9.73;;;;;;;11.87;71.64;98551.91;3590089;40;20306;-62
2021/05/12 05:23:36;;;;;;;10.70;9.10;;;;;;;11.89;71.60;98549.88;3599430;40;20086;-62
2021/05/12 05:26:03;;;;;;;10.05;8.98;;;;;;;11.82;71.37;98554.34;3589891;40;20036;-62
2021/05/12 05:28:31;;;;;;;11.90;9.50;;;;;;;11.79;71.54;98552.91;3599319;40;20051;-62
2021/05/12 05:30:59;;;;;;;13.18;9.77;;;;;;;11.82;71.67;98547.19;3599558;40;20188;-64
2021/05/12 05:33:44;;;;;;;12.65;9.07;;;;;;;11.94;71.79;98558.00;3599363;40;20129;-64
2021/05/12 05:36:30;;;;;;;12.23;9.70;;;;;;;11.95;71.06;98546.38;3599347;40;20121;-62
2021/05/12 05:39:17;;;;;;;11.07;9.65;;;;;;;11.83;70.99;98556.78;3599476;40;20055;-61
2021/05/12 05:42:04;;;;;;;11.88;9.02;;;;;;;11.82;71.34;98551.69;3599315;40;20051;-62
2021/05/12 05:44:49;;;;;;;14.50;9.50;;;;;;;11.93;71.08;98553.75;3598958;39;20181;-62
2021/05/12 05:47:35;;;;;;;12.63;8.48;;;;;;;11.99;71.26;98538.84;3598806;40;20043;-62
2021/05/12 05:50:35;;;;;;;12.60;9.18;;;;;;;12.05;70.83;98544.13;3581708;40;20429;-61
2021/05/12 05:53:21;;;;;;;9.80;8.48;;;;;;;12.05;70.85;98545.97;3599490;40;20067;-61
2021/05/12 05:56:07;;;;;;;12.15;10.30;;;;;;;12.15;70.64;98548.97;3599121;40;20152;-62
2021/05/12 05:58:53;;;;;;;11.27;9.23;;;;;;;12.10;70.75;98549.63;3598789;40;20070;-62
2021/05/12 06:01:40;;;;;;;11.00;9.60;;;;;;;12.13;70.84;98546.56;3599773;40;20058;-62
2021/05/12 06:04:07;;;;;;;10.02;8.88;;;;;;;12.06;70.19;98553.69;3599098;40;20043;-62
2021/05/12 06:06:54;;;;;;;11.38;9.35;;;;;;;11.94;70.56;98555.34;3599428;40;20125;-62
2021/05/12 06:09:41;;;;;;;14.30;9.98;;;;;;;11.95;70.79;98556.16;3599246;40;20125;-62
2021/05/12 06:12:27;;;;;;;16.48;9.52;;;;;;;11.97;70.55;98551.50;3599073;40;20058;-63
2021/05/12 06:15:17;;;;;;;14.88;10.52;;;;;;;11.98;70.59;98561.06;3599016;40;20039;-63
2021/05/12 06:18:10;;;;;;;15.00;10.68;;;;;;;11.90;70.75;98570.84;3598771;40;20117;-64
2021/05/12 06:21:00;;;;;;;11.07;9.27;;;;;;;11.89;70.88;98579.00;3579367;40;20060;-61
2021/05/12 06:23:46;;;;;;;16.75;10.98;;;;;;;11.99;70.84;98581.22;3599090;40;20088;-61
2021/05/12 06:26:47;;;;;;;11.55;10.30;;;;;;;12.01;70.54;98577.34;3565077;40;20080;-62
2021/05/12 06:29:34;;;;;;;10.93;9.75;;;;;;;12.00;70.50;98570.44;3598814;40;20048;-61
2021/05/12 06:32:20;;;;;;;14.20;9.82;;;;;;;12.05;70.27;98575.91;3599220;40;20054;-62
2021/05/12 06:35:07;;;;;;;11.48;9.63;;;;;;;12.07;70.13;98573.88;3599327;40;20059;-63
2021/05/12 06:37:52;;;;;;;12.57;9.88;;;;;;;12.07;70.04;98563.25;3600083;40;20047;-62
2021/05/12 06:40:22;;;;;;;15.27;8.80;;;;;;;12.12;70.19;98570.59;3599671;40;20020;-62
2021/05/12 06:42:49;;;;;;;14.45;9.32;;;;;;;12.08;69.85;98574.69;3599727;40;20129;-62
2021/05/12 06:45:17;;;;;;;11.13;9.07;;;;;;;12.04;69.93;98573.47;3599884;40;20318;-63
2021/05/12 06:47:53;;;;;;;11.77;8.32;;;;;;;12.07;69.79;98575.69;3599834;40;20497;-66
2021/05/12 06:50:22;;;;;;;10.85;9.13;;;;;;;12.10;69.96;98572.66;3590145;40;20110;-63
2021/05/12 06:52:52;;;;;;;9.10;8.07;;;;;;;12.14;69.72;98571.22;3598970;40;20404;-62
2021/05/12 06:55:20;;;;;;;9.27;8.32;;;;;;;12.17;69.47;98578.75;3598674;39;20405;-61
2021/05/12 06:57:47;;;;;;;23.40;9.80;;;;;;;12.29;69.34;98582.38;3600306;40;20040;-61
2021/05/12 07:00:16;;;;;;;10.85;8.95;;;;;;;12.26;69.12;98574.84;3600316;40;20393;-62
2021/05/12 07:02:49;;;;;;;11.63;8.40;;;;;;;12.23;69.17;98569.13;3600105;40;20390;-62
2021/05/12 07:05:19;;;;;;;10.18;9.18;;;;;;;12.18;69.15;98574.25;3600129;40;20044;-62
2021/05/12 07:07:46;;;;;;;9.90;8.82;;;;;;;12.16;69.48;98571.81;3599963;40;20056;-62
2021/05/12 07:10:15;;;;;;;13.68;9.88;;;;;;;12.05;68.96;98575.91;3602655;40;20055;-62
2021/05/12 07:12:42;;;;;;;12.02;8.95;;;;;;;12.00;69.32;98575.75;3604486;40;20413;-63
2021/05/12 07:15:12;;;;;;;11.88;9.57;;;;;;;12.15;69.60;98559.59;3594239;40;20056;-62
2021/05/12 07:17:40;;;;;;;13.70;8.50;;;;;;;12.21;69.19;98561.41;3603307;40;20028;-63
2021/05/12 07:20:10;;;;;;;12.57;8.95;;;;;;;12.19;68.60;98563.44;3603213;40;20393;-63
2021/05/12 07:22:37;;;;;;;9.88;8.25;;;;;;;12.16;69.20;98563.84;3603545;40;20437;-63
2021/05/12 07:25:06;;;;;;;11.02;9.23;;;;;;;12.12;69.40;98560.00;3594480;40;20321;-63
2021/05/12 07:27:34;;;;;;;10.85;9.02;;;;;;;12.10;69.36;98567.34;3600664;40;20040;-63
2021/05/12 07:30:01;;;;;;;12.23;9.95;;;;;;;12.08;69.40;98564.06;3600766;40;20076;-63
2021/05/12 07:32:29;;;;;;;13.20;8.95;;;;;;;12.09;69.23;98566.53;3591089;40;20028;-63
2021/05/12 07:34:56;;;;;;;12.43;9.57;;;;;;;12.08;69.33;98562.25;3590846;40;20047;-63
2021/05/12 07:37:24;;;;;;;12.60;9.40;;;;;;;12.09;69.48;98561.25;3600200;40;20032;-63
2021/05/12 07:39:52;;;;;;;10.52;9.05;;;;;;;12.13;69.05;98559.81;3600068;40;20043;-63
2021/05/12 07:42:23;;;;;;;9.63;8.40;;;;;;;12.25;69.29;98564.47;3600043;40;20493;-63
2021/05/12 07:44:50;;;;;;;11.43;8.23;;;;;;;12.22;68.75;98560.38;3599865;40;20129;-63
2021/05/12 07:47:18;;;;;;;11.73;8.95;;;;;;;12.23;69.27;98559.34;3599696;39;20044;-63
2021/05/12 07:49:45;;;;;;;11.80;9.82;;;;;;;12.32;69.04;98565.22;3599763;39;20055;-62
2021/05/12 07:52:14;;;;;;;9.75;8.63;;;;;;;12.36;68.84;98561.13;3600510;40;20076;-62
2021/05/12 07:54:44;;;;;;;12.98;8.65;;;;;;;12.27;68.89;98557.91;3599780;40;20048;-62
2021/05/12 07:57:12;;;;;;;10.82;9.05;;;;;;;12.18;69.14;98558.34;3599459;40;20028;-62
2021/05/12 07:59:39;;;;;;;11.43;9.18;;;;;;;12.19;69.41;98558.16;3599553;40;20151;-63
2021/05/12 08:02:07;;;;;;;10.65;9.10;;;;;;;12.16;69.49;98561.19;3590181;40;20359;-63
2021/05/12 08:04:35;;;;;;;12.82;9.55;;;;;;;12.09;70.71;98565.72;3599610;40;20107;-62
2021/05/12 08:07:03;;;;;;;11.80;8.90;;;;;;;12.17;70.67;98562.84;3598907;39;20036;-63
2021/05/12 08:09:31;;;;;;;13.20;10.32;;;;;;;12.27;70.62;98565.06;3599415;40;20124;-63
2021/05/12 08:12:00;;;;;;;11.50;8.95;;;;;;;12.28;70.36;98554.22;3599735;40;20028;-63
2021/05/12 08:14:28;;;;;;;13.85;9.43;;;;;;;12.35;70.62;98568.28;3599483;40;20140;-62
2021/05/12 08:16:55;;;;;;;11.60;9.68;;;;;;;12.34;69.98;98566.66;3599500;39;20084;-63
2021/05/12 08:19:24;;;;;;;13.90;8.70;;;;;;;12.49;70.36;98562.91;3599474;40;20100;-63
2021/05/12 08:21:57;;;;;;;9.65;8.05;;;;;;;12.57;69.65;98563.53;3599421;40;20302;-63
2021/05/12 08:24:24;;;;;;;11.48;8.25;;;;;;;12.67;69.29;98557.75;3599407;40;20389;-63
2021/05/12 08:26:51;;;;;;;11.18;8.57;;;;;;;12.83;68.75;98559.09;3599857;40;20040;-63
2021/05/12 08:29:20;;;;;;;12.10;8.15;;;;;;;12.87;68.43;98560.31;3599446;40;20309;-64
2021/05/12 08:31:48;;;;;;;13.50;7.90;;;;;;;13.04;68.34;98560.59;3599660;40;20401;-63
2021/05/12 08:34:15;;;;;;;13.63;7.95;;;;;;;13.24;67.91;98556.00;3599329;40;20091;-63
2021/05/12 08:36:43;;;;;;;11.32;7.53;;;;;;;13.32;67.33;98558.38;3599635;40;20060;-63
2021/05/12 08:39:10;;;;;;;8.38;6.82;;;;;;;13.52;67.04;98549.44;3599167;39;20024;-63
2021/05/12 08:41:40;;;;;;;11.57;7.35;;;;;;;13.79;66.31;98545.50;3599474;39;20044;-63
2021/05/12 08:44:13;;;;;;;12.40;7.55;;;;;;;13.94;65.72;98545.16;3599289;40;20113;-63
2021/05/12 08:46:42;;;;;;;9.45;6.63;;;;;;;14.13;64.49;98540.69;3599091;40;20055;-63
2021/05/12 08:49:10;;;;;;;7.80;6.38;;;;;;;14.07;63.67;98539.69;3599164;40;20306;-63
2021/05/12 08:51:38;;;;;;;9.48;6.13;;;;;;;14.29;63.70;98533.94;3589855;40;20381;-63
2021/05/12 08:54:10;;;;;;;8.02;5.80;;;;;;;14.57;63.27;98528.91;3599118;40;20063;-63
2021/05/12 08:56:38;;;;;;;11.75;7.07;;;;;;;14.85;61.59;98528.31;3599208;40;20084;-63
2021/05/12 08:59:05;;;;;;;10.82;5.63;;;;;;;14.97;61.35;98523.03;3598992;40;20391;-63
2021/05/12 09:01:33;;;;;;;10.73;5.85;;;;;;;15.09;61.12;98525.72;3598953;40;20040;-64
2021/05/12 09:04:02;;;;;;;7.82;5.80;;;;;;;15.15;61.04;98514.16;3599500;40;20407;-63
2021/05/12 09:06:32;;;;;;;9.50;5.85;;;;;;;15.46;60.41;98523.69;3599043;40;20044;-63
2021/05/12 09:09:00;;;;;;;11.98;5.80;;;;;;;15.66;60.21;98511.91;3598668;40;20052;-61
2021/05/12 09:11:28;;;;;;;11.48;5.75;;;;;;;15.74;58.60;98512.38;3598969;40;20052;-62
2021/05/12 09:13:55;;;;;;;10.90;5.80;;;;;;;15.60;58.89;98509.09;3598995;40;20056;-62
2021/05/12 09:16:24;;;;;;;7.60;5.53;;;;;;;15.42;58.06;98513.72;3599141;39;20055;-62
2021/05/12 09:19:01;;;;;;;9.23;6.15;;;;;;;15.52;58.67;98500.66;3598578;39;20051;-62
2021/05/12 09:21:43;;;;;;;11.65;5.75;;;;;;;15.64;58.23;98503.31;3599141;40;20047;-63
2021/05/12 09:24:25;;;;;;;10.75;7.30;;;;;;;15.87;57.87;98503.31;3598972;40;20325;-63
2021/05/12 09:26:54;;;;;;;8.38;5.25;;;;;;;16.06;56.96;98493.31;3589432;40;20313;-63
2021/05/12 09:29:25;;;;;;;10.30;6.10;;;;;;;16.18;56.61;98494.09;3599473;40;20389;-64
2021/05/12 09:32:02;;;;;;;10.63;5.57;;;;;;;16.25;55.66;98492.13;3599287;40;20044;-62
2021/05/12 09:34:47;;;;;;;10.93;5.70;;;;;;;16.33;56.08;98490.94;3599242;40;20052;-61
2021/05/12 09:37:23;;;;;;;8.60;4.80;;;;;;;16.47;54.97;98489.59;3590803;40;20044;-63
2021/05/12 09:39:51;;;;;;;8.75;5.45;;;;;;;16.38;55.12;98496.38;3601291;40;20028;-62
2021/05/12 09:42:19;;;;;;;9.07;5.35;;;;;;;16.37;55.02;98499.25;3601005;39;20056;-62
2021/05/12 09:44:46;;;;;;;6.80;5.30;;;;;;;16.37;54.55;98489.41;3599772;40;20047;-62
2021/05/12 09:47:28;;;;;;;6.30;4.20;;;;;;;16.32;54.62;98489.28;3600579;39;20036;-64
2021/05/12 09:49:56;;;;;;;8.65;4.82;;;;;;;16.39;54.77;98492.63;3601169;40;20052;-62
2021/05/12 09:52:30;;;;;;;8.80;4.97;;;;;;;16.53;53.80;98487.81;3591561;40;20052;-63
2021/05/12 09:55:01;;;;;;;6.18;3.75;;;;;;;16.60;52.31;98481.28;3601169;40;20103;-62
2021/05/12 09:57:29;;;;;;;7.43;3.80;;;;;;;16.66;52.15;98479.53;3599899;40;20031;-64
2021/05/12 09:59:57;;;;;;;6.50;4.18;;;;;;;16.63;51.80;98477.34;3600811;40;20056;-63
2021/05/12 10:02:24;;;;;;;5.75;3.80;;;;;;;16.79;51.66;98471.25;3601111;40;20052;-63
2021/05/12 10:04:58;;;;;;;8.05;3.70;;;;;;;16.79;51.31;98473.13;3600919;40;20047;-63
2021/05/12 10:07:27;;;;;;;10.27;4.20;;;;;;;16.88;52.09;98470.88;3600668;40;20059;-63
2021/05/12 10:09:56;;;;;;;8.00;3.60;;;;;;;17.04;51.26;98478.06;3601469;40;20138;-63
2021/05/12 10:12:25;;;;;;;7.60;3.55;;;;;;;17.03;49.84;98471.94;3601616;40;20380;-63
2021/05/12 10:14:55;;;;;;;4.60;2.63;;;;;;;17.11;49.57;98467.25;3600976;39;20040;-64
2021/05/12 10:17:23;;;;;;;7.20;3.30;;;;;;;17.13;48.32;98463.25;3600298;40;20044;-65
2021/05/12 10:19:55;;;;;;;5.57;2.88;;;;;;;16.95;48.48;98468.84;3599831;40;20054;-62
2021/05/12 10:22:22;;;;;;;11.95;3.30;;;;;;;16.75;48.32;98466.66;3589282;40;20060;-63
2021/05/12 10:24:52;;;;;;;9.38;3.33;;;;;;;16.56;47.74;98456.13;3598857;40;20050;-63
2021/05/12 10:27:25;;;;;;;4.95;3.10;;;;;;;16.52;48.37;98459.53;3598892;40;20044;-61
2021/05/12 10:29:55;;;;;;;4.05;3.30;;;;;;;16.60;48.84;98459.13;3589058;40;20050;-61
2021/05/12 10:32:25;;;;;;;5.47;3.30;;;;;;;16.70;49.01;98459.34;3598265;40;20052;-62
2021/05/12 10:35:06;;;;;;;5.57;3.20;;;;;;;16.65;49.13;98445.88;3598648;40;20050;-61
2021/05/12 10:37:35;;;;;;;7.97;3.60;;;;;;;16.80;48.61;98446.19;3598401;40;20047;-61
2021/05/12 10:40:05;;;;;;;8.77;3.38;;;;;;;16.98;48.15;98442.47;3598516;40;20054;-61
2021/05/12 10:43:05;;;;;;;8.68;3.83;;;;;;;17.26;47.65;98446.09;3598680;40;20044;-61
2021/05/12 10:46:00;;;;;;;6.53;3.33;;;;;;;17.38;45.70;98448.66;3589115;40;20105;-61
2021/05/12 10:48:30;;;;;;;5.88;3.40;;;;;;;17.52;45.88;98440.06;3588796;40;20044;-61
2021/05/12 10:51:01;;;;;;;10.40;3.97;;;;;;;17.63;45.40;98442.88;3598479;40;20048;-61
2021/05/12 10:53:30;;;;;;;7.82;3.28;;;;;;;17.74;45.82;98437.44;3598437;40;20493;-61
2021/05/12 10:56:08;;;;;;;6.50;3.05;;;;;;;17.86;45.16;98428.50;3598246;40;20076;-62
2021/05/12 10:58:57;;;;;;;8.20;5.85;;;;;;;17.84;45.18;98434.13;3598557;40;20084;-61
2021/05/12 11:01:26;;;;;;;5.15;4.28;;;;;;;17.44;45.12;98437.81;3598459;40;20429;-61
2021/05/12 11:04:16;;;;;;;7.28;5.00;;;;;;;17.10;46.46;98426.34;3598223;40;20129;-61
2021/05/12 11:07:08;;;;;;;7.28;5.35;;;;;;;17.10;46.39;98426.34;3598278;40;20056;-61
2021/05/12 11:09:48;;;;;;;9.50;5.00;;;;;;;17.07;45.62;98427.66;3588267;39;20028;-61
2021/05/12 11:12:31;;;;;;;7.35;5.00;;;;;;;17.09;46.33;98436.22;3598473;40;20078;-63
2021/05/12 11:15:06;;;;;;;8.15;4.30;;;;;;;17.20;45.14;98423.84;3598191;40;20136;-62
2021/05/12 11:17:47;;;;;;;8.18;4.55;;;;;;;17.26;45.42;98420.19;3597962;40;20052;-62
2021/05/12 11:20:28;;;;;;;6.75;4.05;;;;;;;17.35;45.72;98420.59;3598018;40;20055;-61
2021/05/12 11:22:57;;;;;;;5.30;3.88;;;;;;;17.47;45.78;98417.81;3589152;40;20070;-60
2021/05/12 11:25:36;;;;;;;4.43;3.40;;;;;;;17.50;45.57;98426.13;3597897;39;20032;-61
2021/05/12 11:33:59;;;;;;;7.00;3.30;;;;;;;17.57;46.43;98412.59;3597989;40;20044;-62
2021/05/12 11:36:33;;;;;;;4.45;2.53;;;;;;;17.46;46.38;98413.53;3598154;40;20051;-63
2021/05/12 11:39:01;;;;;;;3.85;2.40;;;;;;;17.43;46.68;98414.00;3588875;40;20039;-62
2021/05/12 11:41:28;;;;;;;7.63;3.03;;;;;;;17.36;47.27;98416.88;3597812;39;20059;-63
2021/05/12 11:43:59;;;;;;;6.30;3.42;;;;;;;17.48;47.63;98412.22;3590023;40;20048;-63
2021/05/12 11:46:30;;;;;;;8.32;2.85;;;;;;;17.44;47.73;98408.44;3600155;40;20051;-61
2021/05/12 11:49:01;;;;;;;5.53;2.78;;;;;;;17.27;48.25;98408.47;3600033;40;20044;-62
2021/05/12 11:51:35;;;;;;;7.07;2.70;;;;;;;17.25;48.26;98413.22;3599651;40;20103;-61
2021/05/12 11:54:04;;;;;;;6.35;2.83;;;;;;;17.33;48.30;98412.81;3599524;40;20052;-61